sensor_id;sensor_type;location;lat;lon;timestamp;temperature;humidity
44513;DHT22;30219;50.588;9.504;2023-05-19T00:00:38;8.90;99.90
44513;DHT22;30219;50.588;9.504;2023-05-19T00:03:06;8.80;99.90
44513;DHT22;30219;50.588;9.504;2023-05-19T00:05:33;8.70;99.90
44513;DHT22;30219;50.588;9.504;2023-05-19T00:07:59;8.60;99.90
44513;DHT22;30219;50.588;9.504;2023-05-19T00:10:29;8.50;99.90
44513;DHT22;30219;50.588;9.504;2023-05-19T00:12:56;8.50;99.90
44513;DHT22;30219;50.588;9.504;2023-05-19T00:15:30;8.40;99.90
44513;DHT22;30219;50.588;9.504;2023-05-19T00:17:59;8.30;99.90
44513;DHT22;30219;50.588;9.504;2023-05-19T00:20:28;8.40;99.90
44513;DHT22;30219;50.588;9.504;2023-05-19T00:22:53;8.30;99.90
44513;DHT22;30219;50.588;9.504;2023-05-19T00:25:48;8.30;99.90
44513;DHT22;30219;50.588;9.504;2023-05-19T00:28:13;8.10;99.90
44513;DHT22;30219;50.588;9.504;2023-05-19T00:30:41;8.10;99.90
44513;DHT22;30219;50.588;9.504;2023-05-19T00:33:09;8.00;99.90
44513;DHT22;30219;50.588;9.504;2023-05-19T00:35:35;7.90;99.90
44513;DHT22;30219;50.588;9.504;2023-05-19T00:38:03;7.80;99.90
44513;DHT22;30219;50.588;9.504;2023-05-19T00:40:35;7.80;99.90
44513;DHT22;30219;50.588;9.504;2023-05-19T00:43:09;7.60;99.90
44513;DHT22;30219;50.588;9.504;2023-05-19T00:45:35;7.50;99.90
44513;DHT22;30219;50.588;9.504;2023-05-19T00:48:00;7.40;99.90
44513;DHT22;30219;50.588;9.504;2023-05-19T00:50:29;7.40;99.90
44513;DHT22;30219;50.588;9.504;2023-05-19T00:52:57;7.30;99.90
44513;DHT22;30219;50.588;9.504;2023-05-19T00:55:26;7.40;99.90
44513;DHT22;30219;50.588;9.504;2023-05-19T00:57:57;7.40;99.90
44513;DHT22;30219;50.588;9.504;2023-05-19T01:00:26;7.30;99.90
44513;DHT22;30219;50.588;9.504;2023-05-19T01:02:54;7.30;99.90
44513;DHT22;30219;50.588;9.504;2023-05-19T01:05:22;7.20;99.90
44513;DHT22;30219;50.588;9.504;2023-05-19T01:07:48;7.20;99.90
44513;DHT22;30219;50.588;9.504;2023-05-19T01:10:20;7.10;99.90
44513;DHT22;30219;50.588;9.504;2023-05-19T01:12:51;7.00;99.90
44513;DHT22;30219;50.588;9.504;2023-05-19T01:15:25;7.00;99.90
44513;DHT22;30219;50.588;9.504;2023-05-19T01:20:25;6.90;99.90
44513;DHT22;30219;50.588;9.504;2023-05-19T01:30:54;6.70;99.90
44513;DHT22;30219;50.588;9.504;2023-05-19T01:33:28;6.60;99.90
44513;DHT22;30219;50.588;9.504;2023-05-19T01:35:55;6.60;99.90
44513;DHT22;30219;50.588;9.504;2023-05-19T01:38:21;6.70;99.90
44513;DHT22;30219;50.588;9.504;2023-05-19T01:40:55;6.60;99.90
44513;DHT22;30219;50.588;9.504;2023-05-19T01:43:24;6.60;99.90
44513;DHT22;30219;50.588;9.504;2023-05-19T01:45:55;6.50;99.90
44513;DHT22;30219;50.588;9.504;2023-05-19T01:48:25;6.40;99.90
44513;DHT22;30219;50.588;9.504;2023-05-19T01:50:56;6.30;99.90
44513;DHT22;30219;50.588;9.504;2023-05-19T01:53:29;6.30;99.90
44513;DHT22;30219;50.588;9.504;2023-05-19T01:55:58;6.20;99.90
44513;DHT22;30219;50.588;9.504;2023-05-19T01:58:34;6.20;99.90
44513;DHT22;30219;50.588;9.504;2023-05-19T02:01:06;6.20;99.90
44513;DHT22;30219;50.588;9.504;2023-05-19T02:03:58;6.20;99.90
44513;DHT22;30219;50.588;9.504;2023-05-19T02:11:36;5.90;99.90
44513;DHT22;30219;50.588;9.504;2023-05-19T02:14:07;5.80;99.90
44513;DHT22;30219;50.588;9.504;2023-05-19T02:16:33;5.70;99.90
44513;DHT22;30219;50.588;9.504;2023-05-19T02:19:00;5.70;99.90
44513;DHT22;30219;50.588;9.504;2023-05-19T02:21:25;5.70;99.90
44513;DHT22;30219;50.588;9.504;2023-05-19T02:23:51;5.60;99.90
44513;DHT22;30219;50.588;9.504;2023-05-19T02:26:19;5.70;99.90
44513;DHT22;30219;50.588;9.504;2023-05-19T02:28:45;5.70;99.90
44513;DHT22;30219;50.588;9.504;2023-05-19T02:31:11;5.60;99.90
44513;DHT22;30219;50.588;9.504;2023-05-19T02:33:36;5.60;99.90
44513;DHT22;30219;50.588;9.504;2023-05-19T02:36:02;5.70;99.90
44513;DHT22;30219;50.588;9.504;2023-05-19T02:38:27;5.70;99.90
44513;DHT22;30219;50.588;9.504;2023-05-19T02:40:53;5.60;99.90
44513;DHT22;30219;50.588;9.504;2023-05-19T02:43:18;5.60;99.90
44513;DHT22;30219;50.588;9.504;2023-05-19T02:45:44;5.50;99.90
44513;DHT22;30219;50.588;9.504;2023-05-19T02:48:10;5.50;99.90
44513;DHT22;30219;50.588;9.504;2023-05-19T02:50:35;5.50;99.90
44513;DHT22;30219;50.588;9.504;2023-05-19T02:53:01;5.50;99.90
44513;DHT22;30219;50.588;9.504;2023-05-19T02:55:27;5.40;99.90
44513;DHT22;30219;50.588;9.504;2023-05-19T02:57:52;5.40;99.90
44513;DHT22;30219;50.588;9.504;2023-05-19T03:00:17;5.40;99.90
44513;DHT22;30219;50.588;9.504;2023-05-19T03:02:43;5.30;99.90
44513;DHT22;30219;50.588;9.504;2023-05-19T03:05:09;5.20;99.90
44513;DHT22;30219;50.588;9.504;2023-05-19T03:07:35;5.10;99.90
44513;DHT22;30219;50.588;9.504;2023-05-19T03:10:00;5.10;99.90
44513;DHT22;30219;50.588;9.504;2023-05-19T03:12:28;5.10;99.90
44513;DHT22;30219;50.588;9.504;2023-05-19T03:14:53;5.20;99.90
44513;DHT22;30219;50.588;9.504;2023-05-19T03:17:19;5.20;99.90
44513;DHT22;30219;50.588;9.504;2023-05-19T03:19:45;5.20;99.90
44513;DHT22;30219;50.588;9.504;2023-05-19T03:22:13;5.10;99.90
44513;DHT22;30219;50.588;9.504;2023-05-19T03:24:39;5.00;99.90
44513;DHT22;30219;50.588;9.504;2023-05-19T03:27:04;5.00;99.90
44513;DHT22;30219;50.588;9.504;2023-05-19T03:29:30;5.00;99.90
44513;DHT22;30219;50.588;9.504;2023-05-19T03:31:55;4.90;99.90
44513;DHT22;30219;50.588;9.504;2023-05-19T03:34:21;4.80;99.90
44513;DHT22;30219;50.588;9.504;2023-05-19T03:36:46;4.80;99.90
44513;DHT22;30219;50.588;9.504;2023-05-19T03:39:14;4.80;99.90
44513;DHT22;30219;50.588;9.504;2023-05-19T03:41:40;4.80;99.90
44513;DHT22;30219;50.588;9.504;2023-05-19T03:44:05;4.80;99.90
44513;DHT22;30219;50.588;9.504;2023-05-19T03:46:31;4.80;99.90
44513;DHT22;30219;50.588;9.504;2023-05-19T03:48:56;4.80;99.90
44513;DHT22;30219;50.588;9.504;2023-05-19T03:51:22;4.70;99.90
44513;DHT22;30219;50.588;9.504;2023-05-19T03:53:47;4.60;99.90
44513;DHT22;30219;50.588;9.504;2023-05-19T03:56:13;4.60;99.90
44513;DHT22;30219;50.588;9.504;2023-05-19T03:58:39;4.60;99.90
44513;DHT22;30219;50.588;9.504;2023-05-19T04:01:07;4.60;99.90
44513;DHT22;30219;50.588;9.504;2023-05-19T04:03:33;4.60;99.90
44513;DHT22;30219;50.588;9.504;2023-05-19T04:05:58;4.50;99.90
44513;DHT22;30219;50.588;9.504;2023-05-19T04:08:24;4.50;99.90
44513;DHT22;30219;50.588;9.504;2023-05-19T04:10:49;4.50;99.90
44513;DHT22;30219;50.588;9.504;2023-05-19T04:13:15;4.50;99.90
44513;DHT22;30219;50.588;9.504;2023-05-19T04:15:40;4.50;99.90
44513;DHT22;30219;50.588;9.504;2023-05-19T04:18:05;4.50;99.90
44513;DHT22;30219;50.588;9.504;2023-05-19T04:20:31;4.60;99.90
44513;DHT22;30219;50.588;9.504;2023-05-19T04:22:56;4.60;99.90
44513;DHT22;30219;50.588;9.504;2023-05-19T04:25:22;4.70;99.90
44513;DHT22;30219;50.588;9.504;2023-05-19T04:27:49;4.80;99.90
44513;DHT22;30219;50.588;9.504;2023-05-19T04:30:14;5.00;99.90
44513;DHT22;30219;50.588;9.504;2023-05-19T04:32:46;5.20;99.90
44513;DHT22;30219;50.588;9.504;2023-05-19T04:35:13;5.50;99.90
44513;DHT22;30219;50.588;9.504;2023-05-19T04:37:42;5.80;99.90
44513;DHT22;30219;50.588;9.504;2023-05-19T04:40:10;6.10;99.90
44513;DHT22;30219;50.588;9.504;2023-05-19T04:42:36;6.40;99.90
44513;DHT22;30219;50.588;9.504;2023-05-19T04:45:05;6.70;99.90
44513;DHT22;30219;50.588;9.504;2023-05-19T04:47:33;6.90;99.90
44513;DHT22;30219;50.588;9.504;2023-05-19T04:50:01;7.00;99.90
44513;DHT22;30219;50.588;9.504;2023-05-19T04:52:27;7.20;99.90
44513;DHT22;30219;50.588;9.504;2023-05-19T04:54:52;7.30;99.90
44513;DHT22;30219;50.588;9.504;2023-05-19T04:57:18;7.50;99.90
44513;DHT22;30219;50.588;9.504;2023-05-19T04:59:43;7.60;99.90
44513;DHT22;30219;50.588;9.504;2023-05-19T05:02:09;7.70;99.90
44513;DHT22;30219;50.588;9.504;2023-05-19T05:04:34;7.80;99.90
44513;DHT22;30219;50.588;9.504;2023-05-19T05:07:00;7.80;99.90
44513;DHT22;30219;50.588;9.504;2023-05-19T05:09:26;7.80;99.90
44513;DHT22;30219;50.588;9.504;2023-05-19T05:11:51;7.90;99.90
44513;DHT22;30219;50.588;9.504;2023-05-19T05:14:17;8.10;99.90
44513;DHT22;30219;50.588;9.504;2023-05-19T05:16:42;8.20;99.90
44513;DHT22;30219;50.588;9.504;2023-05-19T05:19:08;8.40;99.90
44513;DHT22;30219;50.588;9.504;2023-05-19T05:21:34;8.60;99.90
44513;DHT22;30219;50.588;9.504;2023-05-19T05:23:59;8.70;99.90
44513;DHT22;30219;50.588;9.504;2023-05-19T05:26:27;8.80;99.90
44513;DHT22;30219;50.588;9.504;2023-05-19T05:28:54;9.10;99.90
44513;DHT22;30219;50.588;9.504;2023-05-19T05:31:19;9.20;99.90
44513;DHT22;30219;50.588;9.504;2023-05-19T05:33:45;9.30;99.90
44513;DHT22;30219;50.588;9.504;2023-05-19T05:36:10;9.40;99.90
44513;DHT22;30219;50.588;9.504;2023-05-19T05:38:36;9.70;99.90
44513;DHT22;30219;50.588;9.504;2023-05-19T05:41:02;9.50;99.90
44513;DHT22;30219;50.588;9.504;2023-05-19T05:43:28;9.40;99.90
44513;DHT22;30219;50.588;9.504;2023-05-19T05:45:54;9.50;99.90
44513;DHT22;30219;50.588;9.504;2023-05-19T05:48:19;9.60;99.90
44513;DHT22;30219;50.588;9.504;2023-05-19T05:50:45;9.80;99.90
44513;DHT22;30219;50.588;9.504;2023-05-19T05:53:16;10.10;99.90
44513;DHT22;30219;50.588;9.504;2023-05-19T05:55:42;10.30;99.90
44513;DHT22;30219;50.588;9.504;2023-05-19T05:58:07;10.80;99.90
44513;DHT22;30219;50.588;9.504;2023-05-19T06:00:35;11.10;99.90
44513;DHT22;30219;50.588;9.504;2023-05-19T06:03:04;11.50;99.90
44513;DHT22;30219;50.588;9.504;2023-05-19T06:05:29;11.90;99.90
44513;DHT22;30219;50.588;9.504;2023-05-19T06:07:55;12.10;99.90
44513;DHT22;30219;50.588;9.504;2023-05-19T06:10:22;12.30;99.90
44513;DHT22;30219;50.588;9.504;2023-05-19T06:12:47;12.60;99.90
44513;DHT22;30219;50.588;9.504;2023-05-19T06:15:13;13.00;99.90
44513;DHT22;30219;50.588;9.504;2023-05-19T06:17:38;13.30;99.90
44513;DHT22;30219;50.588;9.504;2023-05-19T06:20:04;13.70;99.90
44513;DHT22;30219;50.588;9.504;2023-05-19T06:22:30;13.90;99.90
44513;DHT22;30219;50.588;9.504;2023-05-19T06:24:56;14.10;99.90
44513;DHT22;30219;50.588;9.504;2023-05-19T06:27:21;14.40;99.90
44513;DHT22;30219;50.588;9.504;2023-05-19T06:29:47;14.70;99.90
44513;DHT22;30219;50.588;9.504;2023-05-19T06:32:12;14.90;99.90
44513;DHT22;30219;50.588;9.504;2023-05-19T06:34:38;15.00;99.90
44513;DHT22;30219;50.588;9.504;2023-05-19T06:37:04;15.40;99.90
44513;DHT22;30219;50.588;9.504;2023-05-19T06:39:30;15.70;99.90
44513;DHT22;30219;50.588;9.504;2023-05-19T06:41:55;15.50;99.90
44513;DHT22;30219;50.588;9.504;2023-05-19T06:44:21;15.60;99.90
44513;DHT22;30219;50.588;9.504;2023-05-19T06:46:46;15.80;99.90
44513;DHT22;30219;50.588;9.504;2023-05-19T06:49:12;16.10;99.90
44513;DHT22;30219;50.588;9.504;2023-05-19T06:51:38;16.50;99.90
44513;DHT22;30219;50.588;9.504;2023-05-19T06:54:03;16.70;99.10
44513;DHT22;30219;50.588;9.504;2023-05-19T06:56:29;17.00;98.90
44513;DHT22;30219;50.588;9.504;2023-05-19T06:58:54;17.30;98.30
44513;DHT22;30219;50.588;9.504;2023-05-19T07:01:20;17.30;98.00
44513;DHT22;30219;50.588;9.504;2023-05-19T07:03:45;17.60;97.90
44513;DHT22;30219;50.588;9.504;2023-05-19T07:06:11;17.80;97.40
44513;DHT22;30219;50.588;9.504;2023-05-19T07:08:37;17.80;96.10
44513;DHT22;30219;50.588;9.504;2023-05-19T07:11:02;17.70;96.80
44513;DHT22;30219;50.588;9.504;2023-05-19T07:13:28;17.90;97.10
44513;DHT22;30219;50.588;9.504;2023-05-19T07:15:53;17.90;96.80
44513;DHT22;30219;50.588;9.504;2023-05-19T07:18:20;18.20;96.50
44513;DHT22;30219;50.588;9.504;2023-05-19T07:20:50;18.10;95.90
44513;DHT22;30219;50.588;9.504;2023-05-19T07:23:16;18.20;95.40
44513;DHT22;30219;50.588;9.504;2023-05-19T07:25:41;18.40;95.80
44513;DHT22;30219;50.588;9.504;2023-05-19T07:28:06;18.50;95.30
44513;DHT22;30219;50.588;9.504;2023-05-19T07:30:32;18.60;95.10
44513;DHT22;30219;50.588;9.504;2023-05-19T07:32:57;18.60;94.70
44513;DHT22;30219;50.588;9.504;2023-05-19T07:35:23;18.50;95.10
44513;DHT22;30219;50.588;9.504;2023-05-19T07:37:49;18.50;94.40
44513;DHT22;30219;50.588;9.504;2023-05-19T07:40:15;18.50;95.50
44513;DHT22;30219;50.588;9.504;2023-05-19T07:42:41;18.60;95.30
44513;DHT22;30219;50.588;9.504;2023-05-19T07:45:07;18.90;95.00
44513;DHT22;30219;50.588;9.504;2023-05-19T07:47:32;19.00;94.30
44513;DHT22;30219;50.588;9.504;2023-05-19T07:49:58;19.20;93.80
44513;DHT22;30219;50.588;9.504;2023-05-19T07:52:23;19.40;94.50
44513;DHT22;30219;50.588;9.504;2023-05-19T07:54:49;19.80;92.50
44513;DHT22;30219;50.588;9.504;2023-05-19T07:57:14;20.10;92.40
44513;DHT22;30219;50.588;9.504;2023-05-19T07:59:40;20.20;92.10
44513;DHT22;30219;50.588;9.504;2023-05-19T08:02:06;19.80;91.70
44513;DHT22;30219;50.588;9.504;2023-05-19T08:04:31;19.70;91.60
44513;DHT22;30219;50.588;9.504;2023-05-19T08:06:57;19.40;91.70
44513;DHT22;30219;50.588;9.504;2023-05-19T08:09:23;19.30;91.50
44513;DHT22;30219;50.588;9.504;2023-05-19T08:11:48;18.70;91.90
44513;DHT22;30219;50.588;9.504;2023-05-19T08:14:14;18.70;92.20
44513;DHT22;30219;50.588;9.504;2023-05-19T08:16:39;19.20;91.70
44513;DHT22;30219;50.588;9.504;2023-05-19T08:19:07;19.00;91.50
44513;DHT22;30219;50.588;9.504;2023-05-19T08:21:33;18.70;90.70
44513;DHT22;30219;50.588;9.504;2023-05-19T08:23:59;18.60;91.10
44513;DHT22;30219;50.588;9.504;2023-05-19T08:26:25;18.70;91.70
44513;DHT22;30219;50.588;9.504;2023-05-19T08:28:51;19.00;91.40
44513;DHT22;30219;50.588;9.504;2023-05-19T08:31:16;18.80;90.80
44513;DHT22;30219;50.588;9.504;2023-05-19T08:33:43;19.00;90.80
44513;DHT22;30219;50.588;9.504;2023-05-19T08:36:08;19.10;90.30
44513;DHT22;30219;50.588;9.504;2023-05-19T08:38:34;18.60;90.60
44513;DHT22;30219;50.588;9.504;2023-05-19T08:41:00;18.70;91.10
44513;DHT22;30219;50.588;9.504;2023-05-19T08:43:25;18.60;90.80
44513;DHT22;30219;50.588;9.504;2023-05-19T08:45:51;18.20;91.20
44513;DHT22;30219;50.588;9.504;2023-05-19T08:48:18;18.20;91.40
44513;DHT22;30219;50.588;9.504;2023-05-19T08:51:03;18.20;91.60
44513;DHT22;30219;50.588;9.504;2023-05-19T08:53:33;18.50;91.00
44513;DHT22;30219;50.588;9.504;2023-05-19T08:56:03;18.70;90.90
44513;DHT22;30219;50.588;9.504;2023-05-19T08:58:36;18.80;90.70
44513;DHT22;30219;50.588;9.504;2023-05-19T09:01:03;19.50;91.00
44513;DHT22;30219;50.588;9.504;2023-05-19T09:03:31;19.70;90.70
44513;DHT22;30219;50.588;9.504;2023-05-19T09:05:57;19.70;90.20
44513;DHT22;30219;50.588;9.504;2023-05-19T09:08:22;20.10;89.70
44513;DHT22;30219;50.588;9.504;2023-05-19T09:10:48;20.50;89.70
44513;DHT22;30219;50.588;9.504;2023-05-19T09:13:13;20.30;89.10
44513;DHT22;30219;50.588;9.504;2023-05-19T09:15:42;20.10;89.90
44513;DHT22;30219;50.588;9.504;2023-05-19T09:18:10;20.30;90.10
44513;DHT22;30219;50.588;9.504;2023-05-19T09:20:36;20.50;88.60
44513;DHT22;30219;50.588;9.504;2023-05-19T09:23:02;20.50;88.50
44513;DHT22;30219;50.588;9.504;2023-05-19T09:25:27;20.60;87.70
44513;DHT22;30219;50.588;9.504;2023-05-19T09:27:53;20.80;88.40
44513;DHT22;30219;50.588;9.504;2023-05-19T09:30:19;20.90;86.90
44513;DHT22;30219;50.588;9.504;2023-05-19T09:32:45;20.80;87.30
44513;DHT22;30219;50.588;9.504;2023-05-19T09:35:11;20.90;87.50
44513;DHT22;30219;50.588;9.504;2023-05-19T09:37:40;20.80;87.10
44513;DHT22;30219;50.588;9.504;2023-05-19T09:40:07;20.80;86.40
44513;DHT22;30219;50.588;9.504;2023-05-19T09:42:35;21.10;87.20
44513;DHT22;30219;50.588;9.504;2023-05-19T09:45:01;21.30;87.00
44513;DHT22;30219;50.588;9.504;2023-05-19T09:47:37;21.40;86.50
44513;DHT22;30219;50.588;9.504;2023-05-19T09:50:09;21.60;85.40
44513;DHT22;30219;50.588;9.504;2023-05-19T09:52:38;21.50;85.90
44513;DHT22;30219;50.588;9.504;2023-05-19T09:55:07;21.60;85.90
44513;DHT22;30219;50.588;9.504;2023-05-19T09:57:33;21.40;87.90
44513;DHT22;30219;50.588;9.504;2023-05-19T10:00:02;21.50;86.30
44513;DHT22;30219;50.588;9.504;2023-05-19T10:02:33;21.50;85.00
44513;DHT22;30219;50.588;9.504;2023-05-19T10:04:59;21.60;86.60
44513;DHT22;30219;50.588;9.504;2023-05-19T10:07:25;21.90;84.40
44513;DHT22;30219;50.588;9.504;2023-05-19T10:09:51;22.00;84.20
44513;DHT22;30219;50.588;9.504;2023-05-19T10:12:17;21.80;84.20
44513;DHT22;30219;50.588;9.504;2023-05-19T10:14:43;21.40;84.50
44513;DHT22;30219;50.588;9.504;2023-05-19T10:17:08;21.20;85.30
44513;DHT22;30219;50.588;9.504;2023-05-19T10:19:35;21.40;84.70
44513;DHT22;30219;50.588;9.504;2023-05-19T10:22:01;21.50;84.00
44513;DHT22;30219;50.588;9.504;2023-05-19T10:24:27;21.90;85.40
44513;DHT22;30219;50.588;9.504;2023-05-19T10:26:57;22.20;85.30
44513;DHT22;30219;50.588;9.504;2023-05-19T10:29:26;22.20;84.40
44513;DHT22;30219;50.588;9.504;2023-05-19T10:31:52;21.60;83.10
44513;DHT22;30219;50.588;9.504;2023-05-19T10:34:26;20.90;85.90
44513;DHT22;30219;50.588;9.504;2023-05-19T10:37:15;21.00;85.70
44513;DHT22;30219;50.588;9.504;2023-05-19T10:39:45;21.00;86.50
44513;DHT22;30219;50.588;9.504;2023-05-19T10:42:15;21.90;83.30
44513;DHT22;30219;50.588;9.504;2023-05-19T10:44:52;21.80;84.60
44513;DHT22;30219;50.588;9.504;2023-05-19T10:47:25;21.60;84.60
44513;DHT22;30219;50.588;9.504;2023-05-19T10:49:51;21.70;84.20
44513;DHT22;30219;50.588;9.504;2023-05-19T10:52:18;22.20;84.60
44513;DHT22;30219;50.588;9.504;2023-05-19T10:54:44;22.40;83.40
44513;DHT22;30219;50.588;9.504;2023-05-19T10:57:15;22.40;83.80
44513;DHT22;30219;50.588;9.504;2023-05-19T10:59:41;22.90;84.30
44513;DHT22;30219;50.588;9.504;2023-05-19T11:02:09;22.40;83.00
44513;DHT22;30219;50.588;9.504;2023-05-19T11:04:52;22.10;82.10
44513;DHT22;30219;50.588;9.504;2023-05-19T11:07:22;22.10;83.20
44513;DHT22;30219;50.588;9.504;2023-05-19T11:09:52;22.00;83.10
44513;DHT22;30219;50.588;9.504;2023-05-19T11:12:21;21.60;82.60
44513;DHT22;30219;50.588;9.504;2023-05-19T11:14:52;21.40;83.40
44513;DHT22;30219;50.588;9.504;2023-05-19T11:17:18;21.00;83.70
44513;DHT22;30219;50.588;9.504;2023-05-19T11:19:55;20.60;84.00
44513;DHT22;30219;50.588;9.504;2023-05-19T11:22:24;20.20;84.60
44513;DHT22;30219;50.588;9.504;2023-05-19T11:24:50;20.40;85.40
44513;DHT22;30219;50.588;9.504;2023-05-19T11:29:48;20.40;86.60
44513;DHT22;30219;50.588;9.504;2023-05-19T11:32:14;20.10;85.60
44513;DHT22;30219;50.588;9.504;2023-05-19T11:34:40;20.00;86.10
44513;DHT22;30219;50.588;9.504;2023-05-19T11:37:06;20.10;84.70
44513;DHT22;30219;50.588;9.504;2023-05-19T11:39:31;20.30;86.70
44513;DHT22;30219;50.588;9.504;2023-05-19T11:41:57;20.50;85.20
44513;DHT22;30219;50.588;9.504;2023-05-19T11:44:23;20.40;85.50
44513;DHT22;30219;50.588;9.504;2023-05-19T11:46:51;20.80;86.60
44513;DHT22;30219;50.588;9.504;2023-05-19T11:49:17;21.20;84.80
44513;DHT22;30219;50.588;9.504;2023-05-19T11:51:43;21.40;83.60
44513;DHT22;30219;50.588;9.504;2023-05-19T11:54:09;21.20;83.20
44513;DHT22;30219;50.588;9.504;2023-05-19T11:56:38;21.10;85.10
44513;DHT22;30219;50.588;9.504;2023-05-19T11:59:04;21.10;83.30
44513;DHT22;30219;50.588;9.504;2023-05-19T12:01:29;21.40;83.40
44513;DHT22;30219;50.588;9.504;2023-05-19T12:03:56;21.60;84.10
44513;DHT22;30219;50.588;9.504;2023-05-19T12:06:21;21.60;83.60
44513;DHT22;30219;50.588;9.504;2023-05-19T12:08:49;22.10;84.20
44513;DHT22;30219;50.588;9.504;2023-05-19T12:11:15;22.00;82.40
44513;DHT22;30219;50.588;9.504;2023-05-19T12:13:40;21.80;84.20
44513;DHT22;30219;50.588;9.504;2023-05-19T12:16:06;21.50;84.00
44513;DHT22;30219;50.588;9.504;2023-05-19T12:18:35;21.40;84.20
44513;DHT22;30219;50.588;9.504;2023-05-19T12:21:00;21.50;83.70
44513;DHT22;30219;50.588;9.504;2023-05-19T12:23:26;21.70;84.80
44513;DHT22;30219;50.588;9.504;2023-05-19T12:25:55;21.60;84.00
44513;DHT22;30219;50.588;9.504;2023-05-19T12:28:21;21.30;81.70
44513;DHT22;30219;50.588;9.504;2023-05-19T12:30:47;21.20;83.10
44513;DHT22;30219;50.588;9.504;2023-05-19T12:33:13;21.20;85.10
44513;DHT22;30219;50.588;9.504;2023-05-19T12:35:40;21.20;85.30
44513;DHT22;30219;50.588;9.504;2023-05-19T12:38:06;21.00;84.90
44513;DHT22;30219;50.588;9.504;2023-05-19T12:40:32;21.10;85.10
44513;DHT22;30219;50.588;9.504;2023-05-19T12:42:58;21.00;83.70
44513;DHT22;30219;50.588;9.504;2023-05-19T12:45:24;21.20;85.90
44513;DHT22;30219;50.588;9.504;2023-05-19T12:47:52;21.50;86.30
44513;DHT22;30219;50.588;9.504;2023-05-19T12:50:17;21.90;83.90
44513;DHT22;30219;50.588;9.504;2023-05-19T12:52:47;21.90;82.00
44513;DHT22;30219;50.588;9.504;2023-05-19T12:55:13;21.60;84.20
44513;DHT22;30219;50.588;9.504;2023-05-19T12:57:47;21.50;82.50
44513;DHT22;30219;50.588;9.504;2023-05-19T13:00:13;21.70;83.20
44513;DHT22;30219;50.588;9.504;2023-05-19T13:05:20;21.50;79.60
44513;DHT22;30219;50.588;9.504;2023-05-19T13:07:56;21.20;81.10
44513;DHT22;30219;50.588;9.504;2023-05-19T13:10:21;21.20;80.60
44513;DHT22;30219;50.588;9.504;2023-05-19T13:12:47;21.20;80.30
44513;DHT22;30219;50.588;9.504;2023-05-19T13:15:13;21.20;81.30
44513;DHT22;30219;50.588;9.504;2023-05-19T13:17:38;21.00;79.90
44513;DHT22;30219;50.588;9.504;2023-05-19T13:20:04;20.50;82.10
44513;DHT22;30219;50.588;9.504;2023-05-19T13:22:29;20.30;83.70
44513;DHT22;30219;50.588;9.504;2023-05-19T13:24:55;20.20;83.70
44513;DHT22;30219;50.588;9.504;2023-05-19T13:27:23;20.20;83.00
44513;DHT22;30219;50.588;9.504;2023-05-19T13:29:49;20.30;84.00
44513;DHT22;30219;50.588;9.504;2023-05-19T13:32:14;20.30;82.60
44513;DHT22;30219;50.588;9.504;2023-05-19T13:34:39;20.50;83.50
44513;DHT22;30219;50.588;9.504;2023-05-19T13:37:05;20.70;82.40
44513;DHT22;30219;50.588;9.504;2023-05-19T13:39:34;20.70;80.70
44513;DHT22;30219;50.588;9.504;2023-05-19T13:41:59;20.70;78.80
44513;DHT22;30219;50.588;9.504;2023-05-19T13:44:25;20.10;79.20
44513;DHT22;30219;50.588;9.504;2023-05-19T13:46:50;19.90;82.80
44513;DHT22;30219;50.588;9.504;2023-05-19T13:49:16;19.90;82.70
44513;DHT22;30219;50.588;9.504;2023-05-19T13:51:41;19.60;83.30
44513;DHT22;30219;50.588;9.504;2023-05-19T13:54:08;19.50;84.80
44513;DHT22;30219;50.588;9.504;2023-05-19T13:56:34;19.50;84.20
44513;DHT22;30219;50.588;9.504;2023-05-19T13:58:59;19.60;85.20
44513;DHT22;30219;50.588;9.504;2023-05-19T14:01:25;19.90;84.00
44513;DHT22;30219;50.588;9.504;2023-05-19T14:03:50;19.90;83.40
44513;DHT22;30219;50.588;9.504;2023-05-19T14:06:16;19.80;83.80
44513;DHT22;30219;50.588;9.504;2023-05-19T14:08:41;19.90;84.30
44513;DHT22;30219;50.588;9.504;2023-05-19T14:11:07;19.90;83.60
44513;DHT22;30219;50.588;9.504;2023-05-19T14:13:32;19.70;82.90
44513;DHT22;30219;50.588;9.504;2023-05-19T14:15:58;19.30;83.10
44513;DHT22;30219;50.588;9.504;2023-05-19T14:18:23;19.40;83.10
44513;DHT22;30219;50.588;9.504;2023-05-19T14:20:49;19.60;84.00
44513;DHT22;30219;50.588;9.504;2023-05-19T14:23:14;19.40;84.10
44513;DHT22;30219;50.588;9.504;2023-05-19T14:25:41;19.60;85.30
44513;DHT22;30219;50.588;9.504;2023-05-19T14:28:06;19.80;83.70
44513;DHT22;30219;50.588;9.504;2023-05-19T14:30:32;19.40;82.40
44513;DHT22;30219;50.588;9.504;2023-05-19T14:32:58;19.10;84.70
44513;DHT22;30219;50.588;9.504;2023-05-19T14:35:23;18.70;85.00
44513;DHT22;30219;50.588;9.504;2023-05-19T14:37:49;18.80;85.60
44513;DHT22;30219;50.588;9.504;2023-05-19T14:40:15;18.70;85.60
44513;DHT22;30219;50.588;9.504;2023-05-19T14:42:40;18.80;85.00
44513;DHT22;30219;50.588;9.504;2023-05-19T14:45:06;18.80;84.80
44513;DHT22;30219;50.588;9.504;2023-05-19T14:47:31;19.00;84.30
44513;DHT22;30219;50.588;9.504;2023-05-19T14:49:57;18.90;82.80
44513;DHT22;30219;50.588;9.504;2023-05-19T14:52:22;18.80;84.30
44513;DHT22;30219;50.588;9.504;2023-05-19T14:54:48;18.80;84.50
44513;DHT22;30219;50.588;9.504;2023-05-19T14:57:13;18.80;85.20
44513;DHT22;30219;50.588;9.504;2023-05-19T14:59:39;18.50;86.10
44513;DHT22;30219;50.588;9.504;2023-05-19T15:02:05;18.40;85.60
44513;DHT22;30219;50.588;9.504;2023-05-19T15:04:30;18.20;85.70
44513;DHT22;30219;50.588;9.504;2023-05-19T15:06:56;18.20;85.90
44513;DHT22;30219;50.588;9.504;2023-05-19T15:09:23;18.40;87.50
44513;DHT22;30219;50.588;9.504;2023-05-19T15:11:48;18.50;89.20
44513;DHT22;30219;50.588;9.504;2023-05-19T15:14:13;18.80;86.40
44513;DHT22;30219;50.588;9.504;2023-05-19T15:16:39;18.90;85.20
44513;DHT22;30219;50.588;9.504;2023-05-19T15:19:05;18.80;85.60
44513;DHT22;30219;50.588;9.504;2023-05-19T15:21:30;18.90;85.00
44513;DHT22;30219;50.588;9.504;2023-05-19T15:23:55;18.70;85.80
44513;DHT22;30219;50.588;9.504;2023-05-19T15:26:21;18.30;86.20
44513;DHT22;30219;50.588;9.504;2023-05-19T15:28:46;18.30;87.60
44513;DHT22;30219;50.588;9.504;2023-05-19T15:31:12;18.10;88.80
44513;DHT22;30219;50.588;9.504;2023-05-19T15:33:37;18.00;87.60
44513;DHT22;30219;50.588;9.504;2023-05-19T15:36:03;18.10;88.90
44513;DHT22;30219;50.588;9.504;2023-05-19T15:38:28;18.30;89.90
44513;DHT22;30219;50.588;9.504;2023-05-19T15:40:54;18.50;88.40
44513;DHT22;30219;50.588;9.504;2023-05-19T15:43:19;18.70;87.70
44513;DHT22;30219;50.588;9.504;2023-05-19T15:45:46;18.70;86.80
44513;DHT22;30219;50.588;9.504;2023-05-19T15:48:12;18.20;83.90
44513;DHT22;30219;50.588;9.504;2023-05-19T15:50:37;18.00;85.50
44513;DHT22;30219;50.588;9.504;2023-05-19T15:53:03;17.90;85.00
44513;DHT22;30219;50.588;9.504;2023-05-19T15:55:30;17.90;83.90